createdAt,value
2022-09-01T00:00:15.326Z,63.64
2022-09-01T00:03:24.843Z,64.11
2022-09-01T00:06:37.314Z,63.63
2022-09-01T00:09:44.103Z,63.72
2022-09-01T00:12:49.839Z,63.47
2022-09-01T00:15:58.253Z,63.68
2022-09-01T00:19:05.156Z,64.11
2022-09-01T00:22:12.269Z,63.67
2022-09-01T00:25:22.119Z,63.68
2022-09-01T00:28:32.728Z,63.83
2022-09-01T00:31:44.171Z,63.55
2022-09-01T00:34:49.985Z,64.04
2022-09-01T00:37:55.521Z,64.30
2022-09-01T00:41:04.563Z,63.92
2022-09-01T00:44:15.530Z,63.86
2022-09-01T00:47:23.921Z,64.40
2022-09-01T00:50:30.096Z,64.51
2022-09-01T00:53:39.422Z,64.69
2022-09-01T00:56:46.709Z,65.15
2022-09-01T01:00:04.869Z,65.15
2022-09-01T01:03:15.484Z,65.17
2022-09-01T01:06:27.083Z,65.39
2022-09-01T01:09:41.754Z,65.07
2022-09-01T01:12:54.233Z,65.27
2022-09-01T01:15:59.812Z,65.34
2022-09-01T01:19:35.774Z,65.34
2022-09-01T01:23:03.864Z,65.17
2022-09-01T01:26:14.187Z,65.23
2022-09-01T01:29:22.093Z,64.98
2022-09-01T01:32:29.659Z,64.87
2022-09-01T01:35:36.921Z,65.10
2022-09-01T01:38:44.300Z,65.27
2022-09-01T01:41:53.404Z,65.47
2022-09-01T01:45:03.851Z,65.30
2022-09-01T01:48:11.281Z,65.87
2022-09-01T01:51:25.255Z,65.97
2022-09-01T01:54:32.851Z,66.25
2022-09-01T01:57:50.301Z,66.64
2022-09-01T02:00:59.256Z,66.56
2022-09-01T02:04:07.085Z,66.38
2022-09-01T02:07:15.508Z,67.02
2022-09-01T02:10:22.070Z,66.58
2022-09-01T02:13:31.706Z,66.39
2022-09-01T02:16:40.164Z,66.39
2022-09-01T02:19:47.645Z,66.40
2022-09-01T02:22:55.672Z,66.45
2022-09-01T02:26:16.173Z,66.68
2022-09-01T02:29:29.012Z,66.32
2022-09-01T02:32:34.906Z,66.70
2022-09-01T02:35:40.709Z,67.04
2022-09-01T02:38:53.317Z,66.94
2022-09-01T02:42:09.671Z,67.25
2022-09-01T02:45:25.813Z,66.85
2022-09-01T02:48:40.418Z,66.54
2022-09-01T02:51:49.185Z,67.04
2022-09-01T02:54:55.803Z,67.23
2022-09-01T02:58:04.997Z,66.98
2022-09-01T03:01:21.311Z,66.58
2022-09-01T03:04:29.217Z,66.25
2022-09-01T03:07:36.553Z,66.58
2022-09-01T03:10:45.209Z,66.18
2022-09-01T03:13:50.965Z,66.47
2022-09-01T03:17:09.706Z,66.75
2022-09-01T03:20:22.825Z,66.75
2022-09-01T03:23:28.814Z,66.44
2022-09-01T03:26:35.474Z,66.50
2022-09-01T03:29:41.262Z,66.88
2022-09-01T03:32:50.898Z,66.73
2022-09-01T03:35:57.937Z,67.11
2022-09-01T03:39:09.409Z,67.42
2022-09-01T03:42:25.897Z,67.48
2022-09-01T03:45:36.103Z,68.11
2022-09-01T03:48:46.038Z,67.64
2022-09-01T03:51:54.108Z,67.46
2022-09-01T03:55:02.451Z,68.14
2022-09-01T03:58:14.695Z,67.92
2022-09-01T04:01:20.573Z,68.15
2022-09-01T04:04:31.708Z,68.22
2022-09-01T04:07:38.498Z,68.17
2022-09-01T04:11:07.737Z,68.36
2022-09-01T04:14:29.914Z,68.18
2022-09-01T04:17:48.942Z,68.29
2022-09-01T04:21:01.101Z,68.12
2022-09-01T04:24:13.588Z,68.07
2022-09-01T04:27:23.306Z,67.63
2022-09-01T04:30:33.970Z,67.66
2022-09-01T04:33:44.830Z,67.99
2022-09-01T04:36:57.084Z,67.44
2022-09-01T04:40:03.043Z,67.35
2022-09-01T04:43:10.974Z,67.15
2022-09-01T04:46:17.656Z,67.30
2022-09-01T04:49:26.656Z,67.09
2022-09-01T04:52:36.071Z,67.07
2022-09-01T04:55:46.441Z,66.96
2022-09-01T04:58:57.505Z,67.02
2022-09-01T05:02:08.040Z,66.54
2022-09-01T05:05:14.051Z,66.05
2022-09-01T05:08:25.602Z,66.58
2022-09-01T05:11:36.000Z,66.42
2022-09-01T05:14:50.225Z,65.62
2022-09-01T05:17:58.727Z,64.70
2022-09-01T05:21:11.811Z,65.08
2022-09-01T05:24:32.292Z,64.65
2022-09-01T05:27:41.515Z,64.22
2022-09-01T05:30:54.385Z,64.10
2022-09-01T05:34:02.259Z,62.60
2022-09-01T05:37:13.722Z,62.05
2022-09-01T05:40:23.622Z,61.24
2022-09-01T05:43:31.015Z,60.15
2022-09-01T05:46:40.637Z,58.35
2022-09-01T05:49:46.729Z,55.36
2022-09-01T05:52:52.823Z,55.11
2022-09-01T05:56:07.004Z,52.60
2022-09-01T05:59:28.576Z,50.68
2022-09-01T06:02:39.223Z,49.54
2022-09-01T06:05:45.967Z,49.72
2022-09-01T06:08:52.226Z,49.51
2022-09-01T06:12:02.132Z,48.67
2022-09-01T06:15:16.432Z,47.01
2022-09-01T06:18:28.099Z,46.44
2022-09-01T06:21:37.390Z,45.92
2022-09-01T06:24:44.911Z,44.57
2022-09-01T06:27:54.416Z,43.74
2022-09-01T06:31:01.041Z,41.74
2022-09-01T06:34:18.353Z,42.46
2022-09-01T06:37:24.630Z,40.30
2022-09-01T06:40:34.185Z,39.21
2022-09-01T06:43:44.857Z,38.31
2022-09-01T06:46:50.651Z,37.34
2022-09-01T06:49:59.369Z,36.96
2022-09-01T06:56:42.830Z,36.85
2022-09-01T06:59:54.317Z,35.60
2022-09-01T07:03:05.330Z,35.18
2022-09-01T07:10:31.920Z,35.47
2022-09-01T07:17:24.821Z,35.21
2022-09-01T07:21:02.722Z,35.79
2022-09-01T07:27:53.370Z,36.57
2022-09-01T07:42:30.448Z,36.70
2022-09-01T07:45:32.435Z,35.88
2022-09-01T07:52:12.597Z,35.72
2022-09-01T07:55:22.239Z,36.17
2022-09-01T07:58:31.828Z,34.95
2022-09-01T08:01:43.401Z,33.15
2022-09-01T08:04:49.545Z,34.06
2022-09-01T08:07:59.285Z,33.39
2022-09-01T08:11:11.460Z,33.38
2022-09-01T08:14:18.188Z,34.02
2022-09-01T08:20:52.143Z,34.30
2022-09-01T08:24:22.155Z,34.06
2022-09-01T08:27:27.867Z,33.80
2022-09-01T08:30:36.153Z,33.37
2022-09-01T08:33:45.591Z,32.72
2022-09-01T08:36:51.228Z,32.86
2022-09-01T08:40:04.019Z,34.12
2022-09-01T08:43:28.219Z,33.87
2022-09-01T08:46:42.868Z,33.25
2022-09-01T08:49:52.759Z,32.55
2022-09-01T08:53:33.847Z,32.05
2022-09-01T08:56:44.301Z,33.38
2022-09-01T08:59:52.451Z,33.66
2022-09-01T09:03:40.440Z,33.33
2022-09-01T09:07:05.473Z,33.74
2022-09-01T09:10:24.118Z,33.30
2022-09-01T09:13:49.951Z,31.32
2022-09-01T09:16:59.458Z,30.96
2022-09-01T09:20:07.081Z,31.36
2022-09-01T09:23:27.619Z,31.17
2022-09-01T09:26:49.586Z,31.78
2022-09-01T09:30:09.180Z,34.62
2022-09-01T09:33:52.085Z,33.64
2022-09-01T09:37:26.769Z,32.08
2022-09-01T09:40:43.269Z,30.86
2022-09-01T09:44:05.067Z,32.84
2022-09-01T09:47:58.865Z,30.88
2022-09-01T09:51:28.937Z,31.29
2022-09-01T09:54:42.495Z,30.68
2022-09-01T09:57:48.463Z,28.74
2022-09-01T10:01:17.859Z,28.06
2022-09-01T10:04:43.273Z,30.06
2022-09-01T10:07:49.189Z,31.74
2022-09-01T10:10:57.533Z,32.36
2022-09-01T10:14:05.082Z,33.80
2022-09-01T10:17:26.100Z,34.83
2022-09-01T10:20:56.250Z,35.88
2022-09-01T10:24:21.060Z,35.32
2022-09-01T10:27:34.391Z,34.80
2022-09-01T10:30:50.961Z,33.17
2022-09-01T10:33:59.344Z,32.83
2022-09-01T10:37:22.837Z,34.42
2022-09-01T10:40:49.207Z,34.89
2022-09-01T10:47:30.723Z,31.43
2022-09-01T10:50:36.496Z,31.92
2022-09-01T10:53:47.460Z,32.30
2022-09-01T10:57:04.007Z,33.22
2022-09-01T11:04:20.010Z,34.12
2022-09-01T11:07:59.762Z,34.70
2022-09-01T11:11:36.019Z,34.32
2022-09-01T11:14:54.816Z,31.13
2022-09-01T11:18:02.768Z,31.91
2022-09-01T11:21:25.713Z,31.81
2022-09-01T11:25:02.430Z,30.70
2022-09-01T11:28:50.270Z,31.15
2022-09-01T11:31:56.277Z,31.67
2022-09-01T11:35:09.059Z,32.93
2022-09-01T11:38:21.627Z,34.16
2022-09-01T11:41:34.229Z,34.26
2022-09-01T11:44:54.954Z,34.75
2022-09-01T11:48:10.699Z,35.78
2022-09-01T11:51:17.702Z,35.29
2022-09-01T11:54:42.100Z,32.72
2022-09-01T11:57:49.834Z,30.98
2022-09-01T12:01:13.878Z,32.13
2022-09-01T12:04:27.661Z,31.04
2022-09-01T12:07:50.485Z,31.96
2022-09-01T12:11:10.230Z,33.34
2022-09-01T12:14:25.413Z,33.70
2022-09-01T12:17:33.730Z,34.38
2022-09-01T12:20:41.537Z,34.96
2022-09-01T12:23:47.200Z,33.80
2022-09-01T12:26:59.280Z,34.62
2022-09-01T12:30:04.951Z,34.84
2022-09-01T12:33:23.599Z,35.71
2022-09-01T12:36:35.066Z,33.50
2022-09-01T12:39:45.380Z,31.65
2022-09-01T12:42:57.344Z,30.79
2022-09-01T12:46:04.856Z,31.77
2022-09-01T12:49:28.731Z,31.95
2022-09-01T12:52:40.145Z,31.63
2022-09-01T12:56:07.710Z,32.32
2022-09-01T12:59:35.878Z,33.23
2022-09-01T13:02:50.917Z,34.25
2022-09-01T13:06:02.227Z,33.77
2022-09-01T13:09:08.656Z,32.38
2022-09-01T13:12:33.814Z,31.92
2022-09-01T13:15:48.368Z,32.05
2022-09-01T13:22:25.110Z,32.17
2022-09-01T13:25:30.687Z,32.01
2022-09-01T13:28:38.860Z,32.40
2022-09-01T13:35:13.849Z,32.38
2022-09-01T13:38:22.720Z,33.31
2022-09-01T13:41:28.253Z,32.12
2022-09-01T13:44:35.270Z,32.89
2022-09-01T13:51:15.020Z,32.87
2022-09-01T13:54:29.962Z,33.16
2022-09-01T13:57:36.609Z,34.89
2022-09-01T14:00:46.476Z,35.58
2022-09-01T14:03:55.097Z,34.36
2022-09-01T14:07:04.156Z,35.02
2022-09-01T14:10:14.610Z,33.38
2022-09-01T14:13:20.488Z,33.59
2022-09-01T14:16:26.262Z,33.83
2022-09-01T14:19:32.821Z,34.07
2022-09-01T14:22:38.800Z,33.03
2022-09-01T14:26:01.308Z,32.55
2022-09-01T14:29:11.635Z,32.98
2022-09-01T14:32:17.431Z,32.07
2022-09-01T14:35:28.129Z,32.21
2022-09-01T14:38:34.124Z,32.27
2022-09-01T14:41:42.225Z,32.89
2022-09-01T14:44:48.318Z,33.53
2022-09-01T14:47:58.846Z,33.43
2022-09-01T14:52:09.682Z,32.93
2022-09-01T14:54:52.915Z,32.49
2022-09-01T14:58:02.080Z,33.28
2022-09-01T15:01:32.697Z,32.83
2022-09-01T15:04:34.511Z,32.17
2022-09-01T15:07:41.319Z,31.15
2022-09-01T15:10:47.759Z,31.34
2022-09-01T15:13:55.984Z,30.89
2022-09-01T15:17:06.167Z,31.88
2022-09-01T15:20:25.316Z,32.66
2022-09-01T15:23:31.034Z,33.39
2022-09-01T15:26:38.414Z,32.93
2022-09-01T15:29:58.077Z,33.47
2022-09-01T15:33:04.426Z,34.31
2022-09-01T15:36:11.697Z,34.18
2022-09-01T15:39:17.310Z,34.59
2022-09-01T15:42:22.903Z,34.77
2022-09-01T15:45:32.672Z,33.90
2022-09-01T15:48:38.289Z,33.80
2022-09-01T15:51:47.915Z,33.77
2022-09-01T15:54:53.438Z,35.37
2022-09-01T15:57:59.384Z,35.57
2022-09-01T16:01:07.828Z,35.94
2022-09-01T16:04:21.778Z,36.03
2022-09-01T16:07:35.142Z,36.37
2022-09-01T16:10:45.166Z,36.35
2022-09-01T16:13:52.472Z,36.83
2022-09-01T16:17:10.588Z,36.70
2022-09-01T16:20:31.101Z,37.70
2022-09-01T16:23:49.453Z,35.87
2022-09-01T16:26:55.455Z,36.04
2022-09-01T16:30:18.521Z,36.45
2022-09-01T16:33:27.038Z,37.06
2022-09-01T16:36:44.310Z,37.25
2022-09-01T16:39:57.383Z,37.41
2022-09-01T16:43:15.738Z,38.17
2022-09-01T16:46:35.064Z,38.70
2022-09-01T16:49:58.715Z,38.95
2022-09-01T16:53:37.317Z,39.33
2022-09-01T16:56:58.706Z,39.76
2022-09-01T17:00:11.821Z,40.63
2022-09-01T17:03:42.956Z,39.99
2022-09-01T17:07:06.106Z,40.47
2022-09-01T17:10:33.185Z,41.24
2022-09-01T17:13:47.680Z,41.48
2022-09-01T17:16:59.390Z,41.81
2022-09-01T17:20:10.037Z,42.15
2022-09-01T17:23:30.701Z,43.10
2022-09-01T17:26:37.476Z,43.19
2022-09-01T17:29:54.422Z,43.38
2022-09-01T17:33:23.390Z,44.09
2022-09-01T17:36:47.116Z,44.71
2022-09-01T17:40:13.763Z,44.49
2022-09-01T17:43:45.979Z,44.61
2022-09-01T17:47:14.020Z,45.38
2022-09-01T17:54:30.517Z,46.54
2022-09-01T17:58:00.011Z,46.10
2022-09-01T18:01:10.966Z,46.59
2022-09-01T18:04:57.982Z,46.95
2022-09-01T18:08:21.921Z,46.67
2022-09-01T18:11:42.258Z,46.72
2022-09-01T18:15:09.147Z,47.42
2022-09-01T18:18:31.026Z,47.42
2022-09-01T18:21:47.467Z,47.11
2022-09-01T18:25:06.908Z,47.97
2022-09-01T18:28:13.707Z,48.21
2022-09-01T18:32:08.233Z,48.80
2022-09-01T18:35:41.914Z,49.11
2022-09-01T18:39:00.265Z,49.48
2022-09-01T18:42:25.073Z,50.38
2022-09-01T18:45:46.729Z,50.62
2022-09-01T18:49:13.139Z,50.86
2022-09-01T18:52:50.031Z,51.20
2022-09-01T18:56:08.959Z,51.75
2022-09-01T18:59:50.614Z,52.21
2022-09-01T19:03:18.901Z,52.07
2022-09-01T19:06:41.361Z,52.70
2022-09-01T19:10:01.512Z,52.81
2022-09-01T19:13:41.280Z,53.44
2022-09-01T19:17:15.308Z,53.17
2022-09-01T19:20:27.828Z,54.01
2022-09-01T19:23:51.188Z,53.44
2022-09-01T19:27:06.320Z,54.36
2022-09-01T19:30:13.148Z,53.90
2022-09-01T19:33:27.379Z,54.03
2022-09-01T19:36:45.813Z,54.15
2022-09-01T19:39:55.367Z,54.32
2022-09-01T19:43:10.246Z,54.14
2022-09-01T19:46:32.514Z,54.61
2022-09-01T19:49:52.219Z,54.41
2022-09-01T19:53:05.129Z,55.14
2022-09-01T19:56:22.061Z,55.40
2022-09-01T19:59:48.744Z,55.63
2022-09-01T20:03:09.837Z,55.92
2022-09-01T20:06:33.655Z,56.19
2022-09-01T20:09:54.836Z,55.85
2022-09-01T20:13:50.662Z,55.78
2022-09-01T20:17:05.329Z,55.84
2022-09-01T20:20:16.825Z,56.03
2022-09-01T20:23:32.480Z,55.97
2022-09-01T20:26:46.328Z,56.34
2022-09-01T20:30:05.555Z,56.16
2022-09-01T20:33:22.475Z,56.10
2022-09-01T20:36:40.218Z,56.24
2022-09-01T20:40:05.169Z,56.11
2022-09-01T20:43:23.421Z,55.80
2022-09-01T20:46:39.712Z,56.26
2022-09-01T20:49:46.020Z,56.35
2022-09-01T20:53:15.185Z,56.20
2022-09-01T20:56:36.183Z,55.76
2022-09-01T20:59:52.975Z,56.11
2022-09-01T21:03:14.974Z,56.24
2022-09-01T21:06:44.055Z,56.26
2022-09-01T21:10:09.740Z,56.12
2022-09-01T21:13:32.301Z,56.23
2022-09-01T21:16:59.467Z,56.36
2022-09-01T21:20:26.402Z,56.52
2022-09-01T21:23:33.284Z,56.58
2022-09-01T21:26:41.256Z,56.46
2022-09-01T21:30:04.269Z,56.84
2022-09-01T21:33:10.350Z,56.77
2022-09-01T21:36:18.599Z,56.64
2022-09-01T21:39:24.622Z,57.07
2022-09-01T21:42:37.510Z,56.54
2022-09-01T21:45:43.256Z,57.15
2022-09-01T21:48:49.011Z,57.04
2022-09-01T21:51:57.364Z,57.77
2022-09-01T21:55:03.103Z,58.18
2022-09-01T21:58:09.254Z,58.24
2022-09-01T22:01:14.889Z,58.90
2022-09-01T22:04:21.386Z,59.22
2022-09-01T22:07:30.436Z,59.87
2022-09-01T22:10:36.026Z,60.06
2022-09-01T22:13:41.666Z,60.29
2022-09-01T22:16:47.348Z,60.53
2022-09-01T22:19:53.505Z,60.84
2022-09-01T22:23:03.271Z,61.01
2022-09-01T22:26:15.518Z,61.08
2022-09-01T22:29:21.321Z,60.89
2022-09-01T22:32:32.413Z,61.13
2022-09-01T22:35:44.683Z,61.13
2022-09-01T22:38:53.320Z,61.94
2022-09-01T22:42:00.055Z,62.21
2022-09-01T22:45:08.629Z,62.01
2022-09-01T22:48:14.696Z,62.14
2022-09-01T22:51:21.790Z,62.46
2022-09-01T22:54:30.343Z,62.35
2022-09-01T22:57:36.943Z,62.99
2022-09-01T23:00:49.614Z,62.95
2022-09-01T23:03:59.712Z,63.48
2022-09-01T23:07:07.334Z,63.43
2022-09-01T23:10:15.843Z,63.66
2022-09-01T23:13:22.318Z,64.40
2022-09-01T23:16:29.363Z,64.11
2022-09-01T23:19:35.183Z,64.44
2022-09-01T23:22:40.737Z,64.30
2022-09-01T23:25:53.361Z,64.99
2022-09-01T23:29:00.241Z,64.67
2022-09-01T23:32:06.999Z,64.66
2022-09-01T23:35:14.464Z,64.51
2022-09-01T23:38:26.045Z,65.01
2022-09-01T23:41:38.325Z,65.44
2022-09-01T23:44:43.910Z,65.74
2022-09-01T23:47:49.594Z,65.65
2022-09-01T23:50:59.614Z,65.59
2022-09-01T23:54:05.922Z,66.16
2022-09-01T23:57:14.230Z,66.20
